createdAt,value
2022-09-09T00:01:02.636Z,100696.66
2022-09-09T00:03:40.031Z,100702.41
2022-09-09T00:06:19.357Z,100701.59
2022-09-09T00:08:57.898Z,100700.25
2022-09-09T00:11:31.544Z,100688.81
2022-09-09T00:14:05.223Z,100697.28
2022-09-09T00:16:37.514Z,100691.03
2022-09-09T00:19:09.447Z,100696.78
2022-09-09T00:21:39.699Z,100690.50
2022-09-09T00:24:14.909Z,100686.16
2022-09-09T00:26:46.794Z,100678.53
2022-09-09T00:29:27.766Z,100676.63
2022-09-09T00:32:00.634Z,100683.19
2022-09-09T00:34:30.881Z,100679.63
2022-09-09T00:36:59.077Z,100676.09
2022-09-09T00:39:33.153Z,100675.28
2022-09-09T00:42:14.860Z,100675.56
2022-09-09T00:44:53.918Z,100672.03
2022-09-09T00:47:45.697Z,100673.13
2022-09-09T00:50:30.646Z,100667.97
2022-09-09T00:53:07.921Z,100676.16
2022-09-09T00:55:43.722Z,100665.81
2022-09-09T00:58:11.776Z,100664.19
2022-09-09T01:00:45.607Z,100662.28
2022-09-09T01:03:25.506Z,100658.22
2022-09-09T01:06:04.211Z,100660.13
2022-09-09T01:08:51.237Z,100660.41
2022-09-09T01:11:22.625Z,100658.78
2022-09-09T01:13:59.900Z,100659.88
2022-09-09T01:16:31.185Z,100654.72
2022-09-09T01:19:00.362Z,100663.19
2022-09-09T01:21:42.271Z,100663.47
2022-09-09T01:24:21.214Z,100655.59
2022-09-09T01:26:51.901Z,100652.34
2022-09-09T01:29:21.230Z,100653.13
2022-09-09T01:31:56.157Z,100646.34
2022-09-09T01:34:25.733Z,100650.19
2022-09-09T01:36:59.570Z,100641.47
2022-09-09T01:39:28.202Z,100644.47
2022-09-09T01:41:58.542Z,100644.47
2022-09-09T01:44:27.853Z,100644.78
2022-09-09T01:46:55.519Z,100636.06
2022-09-09T01:49:23.787Z,100636.34
2022-09-09T01:51:54.027Z,100623.59
2022-09-09T01:54:24.764Z,100633.91
2022-09-09T01:57:04.817Z,100627.13
2022-09-09T01:59:49.459Z,100629.03
2022-09-09T02:02:20.892Z,100622.78
2022-09-09T02:04:51.148Z,100620.34
2022-09-09T02:07:32.821Z,100620.34
2022-09-09T02:10:06.693Z,100625.25
2022-09-09T02:12:35.751Z,100624.44
2022-09-09T02:15:10.197Z,100625.53
2022-09-09T02:17:40.747Z,100628.28
2022-09-09T02:20:12.284Z,100629.38
2022-09-09T02:22:42.335Z,100632.38
2022-09-09T02:25:14.651Z,100626.09
2022-09-09T02:27:47.516Z,100622.53
2022-09-09T02:30:16.978Z,100617.94
2022-09-09T02:32:47.728Z,100618.47
2022-09-09T02:35:17.724Z,100611.41
2022-09-09T02:37:48.022Z,100615.22
2022-09-09T02:40:17.195Z,100622.06
2022-09-09T02:42:48.875Z,100611.97
2022-09-09T02:45:20.039Z,100615.81
2022-09-09T02:47:56.022Z,100610.63
2022-09-09T02:50:28.593Z,100617.19
2022-09-09T02:53:08.886Z,100609.00
2022-09-09T02:55:41.201Z,100611.50
2022-09-09T02:58:13.484Z,100622.91
2022-09-09T03:00:41.817Z,100611.78
2022-09-09T03:03:10.722Z,100615.31
2022-09-09T03:05:38.394Z,100621.06
2022-09-09T03:08:07.382Z,100622.97
2022-09-09T03:10:35.743Z,100615.88
2022-09-09T03:13:03.428Z,100608.81
2022-09-09T03:15:32.445Z,100618.09
2022-09-09T03:18:00.655Z,100619.19
2022-09-09T03:20:29.782Z,100625.72
2022-09-09T03:22:58.426Z,100622.19
2022-09-09T03:25:26.662Z,100630.94
2022-09-09T03:27:55.290Z,100629.84
2022-09-09T03:30:23.238Z,100627.41
2022-09-09T03:32:52.351Z,100634.75
2022-09-09T03:35:20.817Z,100632.31
2022-09-09T03:37:48.897Z,100631.50
2022-09-09T03:40:17.115Z,100619.78
2022-09-09T03:42:44.796Z,100630.97
2022-09-09T03:45:12.786Z,100628.25
2022-09-09T03:47:40.468Z,100632.06
2022-09-09T03:50:12.021Z,100634.00
2022-09-09T03:52:41.640Z,100632.34
2022-09-09T03:55:09.970Z,100629.91
2022-09-09T03:57:38.150Z,100626.38
2022-09-09T04:00:07.617Z,100629.38
2022-09-09T04:02:35.334Z,100628.56
2022-09-09T04:05:03.045Z,100629.38
2022-09-09T04:07:32.019Z,100625.03
2022-09-09T04:09:59.639Z,100626.13
2022-09-09T04:12:27.394Z,100621.50
2022-09-09T04:14:55.019Z,100615.25
2022-09-09T04:17:22.669Z,100616.34
2022-09-09T04:19:50.325Z,100618.25
2022-09-09T04:22:18.013Z,100618.25
2022-09-09T04:24:48.873Z,100614.72
2022-09-09T04:27:16.830Z,100613.91
2022-09-09T04:29:44.452Z,100614.19
2022-09-09T04:32:12.548Z,100615.81
2022-09-09T04:34:40.503Z,100602.47
2022-09-09T04:37:08.272Z,100610.97
2022-09-09T04:39:36.288Z,100603.59
2022-09-09T04:42:05.718Z,100601.97
2022-09-09T04:44:33.360Z,100605.78
2022-09-09T04:47:00.983Z,100603.88
2022-09-09T04:49:28.605Z,100603.06
2022-09-09T04:51:56.546Z,100601.44
2022-09-09T04:54:24.298Z,100598.72
2022-09-09T04:56:52.548Z,100596.00
2022-09-09T04:59:21.538Z,100601.72
2022-09-09T05:01:49.312Z,100590.03
2022-09-09T05:04:17.160Z,100596.28
2022-09-09T05:06:45.080Z,100591.94
2022-09-09T05:09:12.698Z,100593.03
2022-09-09T05:11:40.363Z,100594.94
2022-09-09T05:14:08.082Z,100590.59
2022-09-09T05:16:37.183Z,100580.50
2022-09-09T05:19:04.950Z,100588.16
2022-09-09T05:21:32.710Z,100592.50
2022-09-09T05:24:01.534Z,100584.31
2022-09-09T05:26:30.356Z,100589.78
2022-09-09T05:28:58.044Z,100589.78
2022-09-09T05:31:28.737Z,100592.78
2022-09-09T05:33:58.027Z,100590.06
2022-09-09T05:36:25.690Z,100590.34
2022-09-09T05:38:54.728Z,100594.97
2022-09-09T05:41:24.006Z,100603.44
2022-09-09T05:43:51.849Z,100599.88
2022-09-09T05:46:21.405Z,100597.97
2022-09-09T05:48:51.611Z,100601.81
2022-09-09T05:51:22.800Z,100606.38
2022-09-09T05:53:51.923Z,100610.22
2022-09-09T05:56:21.086Z,100602.66
2022-09-09T05:58:50.145Z,100612.16
2022-09-09T06:01:19.157Z,100609.44
2022-09-09T06:03:48.079Z,100607.81
2022-09-09T06:06:18.146Z,100617.06
2022-09-09T06:08:47.487Z,100609.44
2022-09-09T06:11:17.104Z,100608.63
2022-09-09T06:13:45.584Z,100609.16
2022-09-09T06:16:14.725Z,100605.34
2022-09-09T06:18:43.467Z,100608.31
2022-09-09T06:21:15.487Z,100602.84
2022-09-09T06:23:43.166Z,100599.31
2022-09-09T06:26:14.404Z,100610.22
2022-09-09T06:28:43.782Z,100608.31
2022-09-09T06:31:15.148Z,100607.22
2022-09-09T06:33:44.279Z,100603.09
2022-09-09T06:36:14.063Z,100603.72
2022-09-09T06:38:41.735Z,100604.34
2022-09-09T06:41:11.003Z,100604.63
2022-09-09T06:43:40.241Z,100604.00
2022-09-09T06:46:10.693Z,100598.03
2022-09-09T06:48:38.451Z,100594.19
2022-09-09T06:51:07.962Z,100589.31
2022-09-09T06:53:36.993Z,100603.84
2022-09-09T06:56:18.313Z,100596.03
2022-09-09T06:58:47.779Z,100593.16
2022-09-09T07:01:17.671Z,100596.94
2022-09-09T07:03:49.087Z,100600.84
2022-09-09T07:06:18.944Z,100600.03
2022-09-09T07:08:56.195Z,100603.22
2022-09-09T07:11:26.735Z,100603.03
2022-09-09T07:13:56.438Z,100603.16
2022-09-09T07:16:25.631Z,100605.81
2022-09-09T07:18:56.345Z,100609.13
2022-09-09T07:21:25.512Z,100603.81
2022-09-09T07:23:53.187Z,100594.00
2022-09-09T07:26:24.345Z,100593.50
2022-09-09T07:28:52.046Z,100593.28
2022-09-09T07:31:23.257Z,100594.38
2022-09-09T07:33:50.995Z,100596.56
2022-09-09T07:36:22.671Z,100595.84
2022-09-09T07:38:52.724Z,100595.59
2022-09-09T07:41:23.022Z,100603.88
2022-09-09T07:43:51.826Z,100600.13
2022-09-09T07:46:22.465Z,100599.84
2022-09-09T07:48:52.889Z,100601.56
2022-09-09T07:51:23.327Z,100596.50
2022-09-09T07:53:54.627Z,100597.03
2022-09-09T07:56:24.156Z,100587.50
2022-09-09T07:58:53.256Z,100591.72
2022-09-09T08:01:25.797Z,100601.19
2022-09-09T08:04:00.147Z,100601.78
2022-09-09T08:06:28.725Z,100607.03
2022-09-09T08:08:57.009Z,100603.38
2022-09-09T08:11:26.947Z,100606.75
2022-09-09T08:14:00.235Z,100601.41
2022-09-09T08:16:33.574Z,100606.22
2022-09-09T08:19:01.586Z,100604.06
2022-09-09T08:21:31.145Z,100606.38
2022-09-09T08:24:00.418Z,100604.50
2022-09-09T08:26:30.200Z,100608.09
2022-09-09T08:28:59.410Z,100606.53
2022-09-09T08:31:29.961Z,100600.84
2022-09-09T08:34:00.531Z,100614.75
2022-09-09T08:36:30.810Z,100608.44
2022-09-09T08:38:59.776Z,100605.66
2022-09-09T08:41:49.992Z,100619.56
2022-09-09T08:44:31.958Z,100610.06
2022-09-09T08:47:07.718Z,100617.72
2022-09-09T08:49:52.951Z,100616.66
2022-09-09T08:52:24.850Z,100616.84
2022-09-09T08:54:53.080Z,100615.81
2022-09-09T08:57:27.645Z,100615.28
2022-09-09T08:59:58.593Z,100627.28
2022-09-09T09:02:30.781Z,100629.19
2022-09-09T09:05:13.554Z,100630.28
2022-09-09T09:07:58.079Z,100635.44
2022-09-09T09:10:42.591Z,100636.78
2022-09-09T09:13:17.020Z,100640.91
2022-09-09T09:15:50.181Z,100640.38
2022-09-09T09:18:19.315Z,100644.47
2022-09-09T09:20:56.076Z,100648.31
2022-09-09T09:23:27.209Z,100658.41
2022-09-09T09:26:01.558Z,100649.41
2022-09-09T09:28:33.690Z,100643.44
2022-09-09T09:31:06.073Z,100639.59
2022-09-09T09:33:48.549Z,100638.50
2022-09-09T09:36:18.326Z,100637.69
2022-09-09T09:41:46.573Z,100642.59
2022-09-09T09:44:25.825Z,100636.34
2022-09-09T09:46:54.052Z,100629.81
2022-09-09T09:49:21.798Z,100642.59
2022-09-09T09:51:51.145Z,100641.50
2022-09-09T09:54:28.581Z,100642.31
2022-09-09T09:56:56.360Z,100640.41
2022-09-09T09:59:41.858Z,100640.41
2022-09-09T10:02:21.351Z,100644.78
2022-09-09T10:04:49.626Z,100645.88
2022-09-09T10:07:23.296Z,100638.50
2022-09-09T10:09:55.834Z,100645.06
2022-09-09T10:12:38.390Z,100643.13
2022-09-09T10:15:23.245Z,100645.88
2022-09-09T10:18:02.838Z,100643.13
2022-09-09T10:20:40.993Z,100647.78
2022-09-09T10:23:23.518Z,100655.13
2022-09-09T10:26:05.323Z,100662.22
2022-09-09T10:28:56.476Z,100664.13
2022-09-09T10:31:43.092Z,100662.50
2022-09-09T10:34:29.784Z,100672.31
2022-09-09T10:37:12.892Z,100675.03
2022-09-09T10:39:51.675Z,100663.31
2022-09-09T10:42:33.783Z,100667.94
2022-09-09T10:45:22.807Z,100668.75
2022-09-09T10:48:25.254Z,100666.03
2022-09-09T10:51:04.708Z,100664.13
2022-09-09T10:53:39.838Z,100659.50
2022-09-09T10:56:13.301Z,100658.41
2022-09-09T10:58:48.893Z,100653.09
2022-09-09T11:01:33.725Z,100650.41
2022-09-09T11:04:08.868Z,100651.81
2022-09-09T11:06:45.032Z,100665.72
2022-09-09T11:09:21.466Z,100651.47
2022-09-09T11:11:53.243Z,100640.13
2022-09-09T11:14:28.602Z,100663.53
2022-09-09T11:17:01.513Z,100655.63
2022-09-09T11:19:36.187Z,100663.81
2022-09-09T11:22:08.275Z,100654.00
2022-09-09T11:24:41.669Z,100654.28
2022-09-09T11:27:15.777Z,100654.28
2022-09-09T11:30:17.464Z,100646.91
2022-09-09T11:33:44.449Z,100649.66
2022-09-09T11:36:32.959Z,100656.72
2022-09-09T11:39:10.108Z,100648.56
2022-09-09T11:41:39.448Z,100652.09
2022-09-09T11:44:15.734Z,100652.91
2022-09-09T11:46:43.599Z,100659.09
2022-09-09T11:49:29.006Z,100654.19
2022-09-09T11:51:56.818Z,100652.53
2022-09-09T11:54:32.999Z,100654.72
2022-09-09T11:57:01.363Z,100635.16
2022-09-09T11:59:32.583Z,100650.38
2022-09-09T12:02:03.035Z,100649.28
2022-09-09T12:04:34.971Z,100641.38
2022-09-09T12:07:05.138Z,100645.72
2022-09-09T12:09:44.101Z,100636.19
2022-09-09T12:12:43.783Z,100641.91
2022-09-09T12:15:28.990Z,100633.75
2022-09-09T12:18:02.966Z,100633.75
2022-09-09T12:20:36.950Z,100635.38
2022-09-09T12:23:20.058Z,100634.53
2022-09-09T12:25:59.478Z,100636.19
2022-09-09T12:28:34.705Z,100632.63
2022-09-09T12:31:11.455Z,100638.09
2022-09-09T12:33:44.097Z,100634.25
2022-09-09T12:36:16.378Z,100634.00
2022-09-09T12:38:45.299Z,100636.44
2022-09-09T12:41:21.894Z,100619.56
2022-09-09T12:43:50.920Z,100623.91
2022-09-09T12:46:32.244Z,100620.09
2022-09-09T12:49:00.017Z,100622.81
2022-09-09T12:51:30.993Z,100616.56
2022-09-09T12:53:59.937Z,100618.47
2022-09-09T12:56:31.143Z,100613.81
2022-09-09T12:59:00.329Z,100599.38
2022-09-09T13:01:31.446Z,100614.34
2022-09-09T13:03:59.558Z,100617.91
2022-09-09T13:06:29.589Z,100621.44
2022-09-09T13:08:59.771Z,100614.88
2022-09-09T13:11:32.321Z,100608.31
2022-09-09T13:14:01.271Z,100609.13
2022-09-09T13:16:36.592Z,100605.31
2022-09-09T13:19:11.092Z,100603.41
2022-09-09T13:21:40.491Z,100609.38
2022-09-09T13:24:24.491Z,100602.00
2022-09-09T13:26:58.106Z,100604.44
2022-09-09T13:29:25.874Z,100611.81
2022-09-09T13:31:56.652Z,100609.78
2022-09-09T13:34:32.497Z,100596.06
2022-09-09T13:37:04.426Z,100598.91
2022-09-09T13:39:32.206Z,100607.13
2022-09-09T13:42:00.427Z,100605.78
2022-09-09T13:44:30.706Z,100609.31
2022-09-09T13:47:10.722Z,100599.00
2022-09-09T13:49:38.718Z,100602.53
2022-09-09T13:52:10.801Z,100600.63
2022-09-09T13:54:38.446Z,100603.34
2022-09-09T13:57:06.439Z,100603.81
2022-09-09T14:02:24.211Z,100597.25
2022-09-09T14:04:55.994Z,100592.09
2022-09-09T14:07:24.058Z,100596.75
2022-09-09T14:09:52.750Z,100597.22
2022-09-09T14:12:21.131Z,100596.69
2022-09-09T14:14:48.822Z,100599.69
2022-09-09T14:17:16.465Z,100604.59
2022-09-09T14:19:46.029Z,100603.47
2022-09-09T14:22:13.670Z,100599.66
2022-09-09T14:24:41.858Z,100588.75
2022-09-09T14:27:09.699Z,100600.19
2022-09-09T14:29:37.391Z,100598.56
2022-09-09T14:32:07.424Z,100598.56
2022-09-09T14:34:38.437Z,100586.59
2022-09-09T14:37:07.418Z,100594.44
2022-09-09T14:39:35.205Z,100592.56
2022-09-09T14:42:03.297Z,100588.75
2022-09-09T14:44:31.151Z,100583.56
2022-09-09T14:46:59.564Z,100582.75
2022-09-09T14:49:27.216Z,100594.50
2022-09-09T14:51:54.844Z,100590.94
2022-09-09T14:54:23.978Z,100588.22
2022-09-09T14:56:51.606Z,100581.66
2022-09-09T14:59:19.307Z,100591.75
2022-09-09T15:01:47.085Z,100592.00
2022-09-09T15:04:15.975Z,100588.75
2022-09-09T15:06:45.486Z,100587.94
2022-09-09T15:09:13.209Z,100590.66
2022-09-09T15:11:42.278Z,100579.81
2022-09-09T15:14:12.231Z,100589.84
2022-09-09T15:16:41.146Z,100581.44
2022-09-09T15:19:09.855Z,100599.66
2022-09-09T15:21:39.280Z,100584.63
2022-09-09T15:24:09.237Z,100588.44
2022-09-09T15:26:39.612Z,100594.94
2022-09-09T15:29:09.513Z,100594.13
2022-09-09T15:31:38.085Z,100600.41
2022-09-09T15:34:07.675Z,100595.25
2022-09-09T15:36:37.454Z,100590.59
2022-09-09T15:39:07.019Z,100599.59
2022-09-09T15:41:35.786Z,100598.50
2022-09-09T15:44:04.146Z,100596.56
2022-09-09T15:46:37.229Z,100597.38
2022-09-09T15:49:07.116Z,100596.56
2022-09-09T15:51:42.866Z,100600.41
2022-09-09T15:54:13.070Z,100599.59
2022-09-09T15:56:41.084Z,100599.88
2022-09-09T15:59:08.729Z,100611.09
2022-09-09T16:01:38.814Z,100620.06
2022-09-09T16:04:07.378Z,100618.44
2022-09-09T16:06:35.577Z,100622.28
2022-09-09T16:09:06.189Z,100615.50
2022-09-09T16:11:36.601Z,100619.03
2022-09-09T16:14:05.298Z,100622.84
2022-09-09T16:16:33.387Z,100631.31
2022-09-09T16:19:06.297Z,100633.25
2022-09-09T16:21:36.290Z,100626.69
2022-09-09T16:24:05.730Z,100623.97
2022-09-09T16:26:36.034Z,100640.84
2022-09-09T16:29:04.485Z,100642.75
2022-09-09T16:31:33.045Z,100640.31
2022-09-09T16:34:04.167Z,100663.47
2022-09-09T16:36:36.062Z,100679.03
2022-09-09T16:39:06.449Z,100692.13
2022-09-09T16:41:35.249Z,100719.41
2022-09-09T16:44:04.910Z,100723.81
2022-09-09T16:46:35.905Z,100717.81
2022-09-09T16:49:07.230Z,100697.63
2022-09-09T16:51:36.758Z,100696.00
2022-09-09T16:54:07.782Z,100694.13
2022-09-09T16:56:38.916Z,100693.31
2022-09-09T16:59:08.720Z,100687.88
2022-09-09T17:01:38.854Z,100687.59
2022-09-09T17:04:10.030Z,100673.13
2022-09-09T17:06:39.093Z,100675.88
2022-09-09T17:09:09.175Z,100674.75
2022-09-09T17:11:37.595Z,100672.56
2022-09-09T17:14:06.187Z,100667.13
2022-09-09T17:16:36.088Z,100667.13
2022-09-09T17:19:05.726Z,100673.66
2022-09-09T17:21:35.103Z,100673.94
2022-09-09T17:24:03.173Z,100679.41
2022-09-09T17:26:33.982Z,100677.50
2022-09-09T17:29:02.547Z,100683.47
2022-09-09T17:31:31.052Z,100688.94
2022-09-09T17:33:59.943Z,100685.38
2022-09-09T17:36:30.348Z,100689.44
2022-09-09T17:39:00.693Z,100694.09
2022-09-09T17:41:31.087Z,100699.84
2022-09-09T17:43:59.870Z,100699.03
2022-09-09T17:46:30.065Z,100692.47
2022-09-09T17:48:59.820Z,100695.47
2022-09-09T17:51:30.709Z,100701.47
2022-09-09T17:54:02.228Z,100700.13
2022-09-09T17:56:32.270Z,100706.91
2022-09-09T17:59:01.569Z,100717.00
2022-09-09T18:01:32.094Z,100717.81
2022-09-09T18:04:02.910Z,100713.75
2022-09-09T18:06:33.970Z,100715.66
2022-09-09T18:09:05.336Z,100715.66
2022-09-09T18:11:35.349Z,100724.66
2022-09-09T18:14:04.519Z,100726.84
2022-09-09T18:16:36.039Z,100725.75
2022-09-09T18:19:05.063Z,100736.66
2022-09-09T18:21:34.790Z,100729.59
2022-09-09T18:24:06.834Z,100736.94
2022-09-09T18:26:35.503Z,100737.22
2022-09-09T18:29:08.317Z,100739.16
2022-09-09T18:31:37.813Z,100741.88
2022-09-09T18:34:07.055Z,100747.63
2022-09-09T18:36:37.067Z,100754.16
2022-09-09T18:39:08.793Z,100750.63
2022-09-09T18:41:38.254Z,100757.97
2022-09-09T18:44:08.230Z,100757.16
2022-09-09T18:46:37.928Z,100758.28
2022-09-09T18:49:06.117Z,100757.97
2022-09-09T18:51:35.332Z,100750.63
2022-09-09T18:54:07.886Z,100760.72
2022-09-09T18:56:35.783Z,100764.25
2022-09-09T18:59:06.370Z,100765.34
2022-09-09T19:01:36.109Z,100770.00
2022-09-09T19:04:06.050Z,100774.34
2022-09-09T19:06:38.718Z,100778.69
2022-09-09T19:09:10.635Z,100772.19
2022-09-09T19:11:39.123Z,100782.81
2022-09-09T19:14:10.521Z,100780.13
2022-09-09T19:16:39.226Z,100784.44
2022-09-09T19:19:09.917Z,100784.44
2022-09-09T19:21:40.144Z,100780.09
2022-09-09T19:24:12.718Z,100784.72
2022-09-09T19:26:43.290Z,100787.44
2022-09-09T19:29:15.153Z,100797.53
2022-09-09T19:32:01.856Z,100796.72
2022-09-09T19:34:31.653Z,100809.53
2022-09-09T19:37:00.488Z,100801.34
2022-09-09T19:39:29.554Z,100807.09
2022-09-09T19:41:57.238Z,100809.28
2022-09-09T19:44:24.904Z,100816.91
2022-09-09T19:46:52.668Z,100815.28
2022-09-09T19:49:20.308Z,100809.28
2022-09-09T19:51:47.979Z,100818.56
2022-09-09T19:54:15.810Z,100824.00
2022-09-09T19:56:45.166Z,100816.94
2022-09-09T19:59:15.746Z,100820.75
2022-09-09T20:01:45.670Z,100823.47
2022-09-09T20:04:14.486Z,100819.13
2022-09-09T20:06:44.848Z,100824.56
2022-09-09T20:09:15.604Z,100826.50
2022-09-09T20:11:46.194Z,100829.22
2022-09-09T20:14:14.450Z,100824.03
2022-09-09T20:16:42.490Z,100826.75
2022-09-09T20:19:17.248Z,100831.41
2022-09-09T20:21:47.993Z,100832.50
2022-09-09T20:24:18.020Z,100833.59
2022-09-09T20:26:48.049Z,100830.88
2022-09-09T20:29:18.949Z,100836.59
2022-09-09T20:31:47.064Z,100834.16
2022-09-09T20:34:16.822Z,100834.44
2022-09-09T20:36:44.821Z,100832.00
2022-09-09T20:39:14.932Z,100829.25
2022-09-09T20:41:44.267Z,100837.44
2022-09-09T20:44:16.395Z,100835.00
2022-09-09T20:46:48.054Z,100835.00
2022-09-09T20:49:17.423Z,100832.56
2022-09-09T20:51:45.780Z,100830.38
2022-09-09T20:54:15.837Z,100826.56
2022-09-09T20:56:45.366Z,100819.50
2022-09-09T20:59:16.734Z,100825.75
2022-09-09T21:01:46.994Z,100819.50
2022-09-09T21:04:16.416Z,100828.75
2022-09-09T21:06:44.410Z,100830.66
2022-09-09T21:09:12.266Z,100823.59
2022-09-09T21:11:39.895Z,100826.59
2022-09-09T21:14:07.641Z,100825.78
2022-09-09T21:16:36.675Z,100831.22
2022-09-09T21:19:04.463Z,100820.31
2022-09-09T21:21:32.229Z,100827.69
2022-09-09T21:24:00.618Z,100825.78
2022-09-09T21:26:28.597Z,100834.22
2022-09-09T21:28:56.466Z,100833.41
2022-09-09T21:31:27.757Z,100830.69
2022-09-09T21:33:57.664Z,100827.97
2022-09-09T21:36:28.204Z,100827.16
2022-09-09T21:38:56.734Z,100831.78
2022-09-09T21:41:24.427Z,100827.16
2022-09-09T21:43:54.050Z,100829.34
2022-09-09T21:46:23.523Z,100832.06
2022-09-09T21:48:51.641Z,100833.16
2022-09-09T21:51:20.686Z,100828.81
2022-09-09T21:53:48.305Z,100831.53
2022-09-09T21:56:18.124Z,100834.25
2022-09-09T21:58:47.211Z,100828.00
2022-09-09T22:01:16.607Z,100830.19
2022-09-09T22:03:45.215Z,100833.19
2022-09-09T22:06:14.978Z,100830.72
2022-09-09T22:08:44.879Z,100830.72
2022-09-09T22:11:15.014Z,100829.91
2022-09-09T22:13:44.160Z,100829.38
2022-09-09T22:16:13.722Z,100829.69
2022-09-09T22:18:42.034Z,100829.16
2022-09-09T22:21:12.350Z,100832.69
2022-09-09T22:23:40.045Z,100832.97
2022-09-09T22:26:09.235Z,100837.59
2022-09-09T22:28:38.450Z,100831.63
2022-09-09T22:31:06.954Z,100838.16
2022-09-09T22:33:34.848Z,100838.16
2022-09-09T22:36:03.018Z,100837.63
2022-09-09T22:38:31.542Z,100837.91
2022-09-09T22:40:59.245Z,100837.91
2022-09-09T22:43:28.387Z,100830.81
2022-09-09T22:45:56.091Z,100831.91
2022-09-09T22:48:24.591Z,100833.81
2022-09-09T22:50:52.930Z,100834.91
2022-09-09T22:53:20.558Z,100829.75
2022-09-09T22:55:58.513Z,100829.75
2022-09-09T22:58:29.088Z,100830.84
2022-09-09T23:00:58.757Z,100833.03
2022-09-09T23:03:26.535Z,100836.84
2022-09-09T23:05:56.654Z,100837.66
2022-09-09T23:08:25.943Z,100844.19
2022-09-09T23:10:55.453Z,100837.94
2022-09-09T23:13:24.207Z,100832.50
2022-09-09T23:15:55.233Z,100834.41
2022-09-09T23:18:24.116Z,100834.41
2022-09-09T23:21:00.579Z,100832.75
2022-09-09T23:23:28.874Z,100831.94
2022-09-09T23:25:56.504Z,100831.13
2022-09-09T23:28:24.123Z,100832.22
2022-09-09T23:30:53.139Z,100844.22
2022-09-09T23:33:20.838Z,100843.41
2022-09-09T23:35:48.469Z,100847.22
2022-09-09T23:38:16.102Z,100848.31
2022-09-09T23:40:47.119Z,100858.38
2022-09-09T23:43:14.775Z,100866.00
2022-09-09T23:45:42.403Z,100869.81
2022-09-09T23:48:11.356Z,100857.56
2022-09-09T23:50:39.022Z,100860.28
2022-09-09T23:53:07.198Z,100855.94
2022-09-09T23:55:35.668Z,100846.97
2022-09-09T23:58:03.462Z,100842.59
